sensor_id;sensor_type;location;lat;lon;timestamp;P1;durP1;ratioP1;P2;durP2;ratioP2
438;SDS011;206;48.782;9.252;2023-12-20T00:00:51;2.17;;;1.23;;
438;SDS011;206;48.782;9.252;2023-12-20T00:03:17;1.70;;;1.30;;
438;SDS011;206;48.782;9.252;2023-12-20T00:05:42;1.73;;;1.30;;
438;SDS011;206;48.782;9.252;2023-12-20T00:08:09;1.50;;;1.23;;
438;SDS011;206;48.782;9.252;2023-12-20T00:10:35;1.17;;;1.10;;
438;SDS011;206;48.782;9.252;2023-12-20T00:13:00;1.53;;;1.27;;
438;SDS011;206;48.782;9.252;2023-12-20T00:15:26;1.30;;;0.90;;
438;SDS011;206;48.782;9.252;2023-12-20T00:17:51;1.20;;;1.10;;
438;SDS011;206;48.782;9.252;2023-12-20T00:20:17;1.47;;;0.90;;
438;SDS011;206;48.782;9.252;2023-12-20T00:22:42;1.97;;;1.30;;
438;SDS011;206;48.782;9.252;2023-12-20T00:25:08;1.40;;;1.07;;
438;SDS011;206;48.782;9.252;2023-12-20T00:27:34;2.33;;;1.13;;
438;SDS011;206;48.782;9.252;2023-12-20T00:29:59;1.20;;;1.10;;
438;SDS011;206;48.782;9.252;2023-12-20T00:32:25;1.43;;;1.20;;
438;SDS011;206;48.782;9.252;2023-12-20T00:34:51;1.33;;;1.20;;
438;SDS011;206;48.782;9.252;2023-12-20T00:37:16;1.30;;;0.80;;
438;SDS011;206;48.782;9.252;2023-12-20T00:39:42;1.27;;;1.13;;
438;SDS011;206;48.782;9.252;2023-12-20T00:42:07;1.30;;;1.03;;
438;SDS011;206;48.782;9.252;2023-12-20T00:44:33;1.27;;;1.03;;
438;SDS011;206;48.782;9.252;2023-12-20T00:46:58;1.70;;;1.23;;
438;SDS011;206;48.782;9.252;2023-12-20T00:49:24;1.53;;;1.27;;
438;SDS011;206;48.782;9.252;2023-12-20T00:51:49;1.17;;;0.77;;
438;SDS011;206;48.782;9.252;2023-12-20T00:54:17;1.73;;;0.90;;
438;SDS011;206;48.782;9.252;2023-12-20T00:56:43;1.00;;;0.90;;
438;SDS011;206;48.782;9.252;2023-12-20T00:59:08;1.70;;;0.90;;
438;SDS011;206;48.782;9.252;2023-12-20T01:01:34;2.40;;;1.53;;
438;SDS011;206;48.782;9.252;2023-12-20T01:04:00;1.13;;;0.87;;
438;SDS011;206;48.782;9.252;2023-12-20T01:06:25;1.37;;;1.27;;
438;SDS011;206;48.782;9.252;2023-12-20T01:08:51;1.77;;;1.20;;
438;SDS011;206;48.782;9.252;2023-12-20T01:11:17;2.73;;;0.97;;
438;SDS011;206;48.782;9.252;2023-12-20T01:13:42;1.53;;;0.80;;
438;SDS011;206;48.782;9.252;2023-12-20T01:16:10;1.23;;;1.17;;
438;SDS011;206;48.782;9.252;2023-12-20T01:18:37;1.00;;;0.87;;
438;SDS011;206;48.782;9.252;2023-12-20T01:21:03;1.60;;;1.43;;
438;SDS011;206;48.782;9.252;2023-12-20T01:23:29;2.00;;;1.27;;
438;SDS011;206;48.782;9.252;2023-12-20T01:25:55;1.10;;;1.00;;
438;SDS011;206;48.782;9.252;2023-12-20T01:28:20;1.47;;;0.80;;
438;SDS011;206;48.782;9.252;2023-12-20T01:30:46;1.63;;;1.20;;
438;SDS011;206;48.782;9.252;2023-12-20T01:33:11;1.07;;;1.03;;
438;SDS011;206;48.782;9.252;2023-12-20T01:35:37;1.97;;;1.30;;
438;SDS011;206;48.782;9.252;2023-12-20T01:38:02;2.00;;;0.90;;
438;SDS011;206;48.782;9.252;2023-12-20T01:40:28;1.60;;;0.90;;
438;SDS011;206;48.782;9.252;2023-12-20T01:42:57;2.17;;;0.80;;
438;SDS011;206;48.782;9.252;2023-12-20T01:45:27;1.20;;;1.07;;
438;SDS011;206;48.782;9.252;2023-12-20T01:47:53;1.07;;;0.87;;
438;SDS011;206;48.782;9.252;2023-12-20T01:50:20;2.53;;;1.10;;
438;SDS011;206;48.782;9.252;2023-12-20T01:52:46;1.43;;;1.03;;
438;SDS011;206;48.782;9.252;2023-12-20T01:55:12;1.90;;;1.67;;
438;SDS011;206;48.782;9.252;2023-12-20T01:57:43;3.10;;;1.37;;
438;SDS011;206;48.782;9.252;2023-12-20T02:00:10;2.50;;;1.10;;
438;SDS011;206;48.782;9.252;2023-12-20T02:02:38;1.53;;;1.17;;
438;SDS011;206;48.782;9.252;2023-12-20T02:05:05;2.90;;;1.10;;
438;SDS011;206;48.782;9.252;2023-12-20T02:07:34;2.10;;;1.13;;
438;SDS011;206;48.782;9.252;2023-12-20T02:10:00;2.43;;;1.77;;
438;SDS011;206;48.782;9.252;2023-12-20T02:12:27;1.40;;;1.30;;
438;SDS011;206;48.782;9.252;2023-12-20T02:14:52;1.40;;;1.40;;
438;SDS011;206;48.782;9.252;2023-12-20T02:17:19;1.40;;;1.33;;
438;SDS011;206;48.782;9.252;2023-12-20T02:19:45;2.30;;;1.77;;
438;SDS011;206;48.782;9.252;2023-12-20T02:22:11;1.23;;;1.20;;
438;SDS011;206;48.782;9.252;2023-12-20T02:24:36;1.83;;;1.40;;
438;SDS011;206;48.782;9.252;2023-12-20T02:27:03;1.20;;;1.10;;
438;SDS011;206;48.782;9.252;2023-12-20T02:29:30;1.40;;;1.17;;
438;SDS011;206;48.782;9.252;2023-12-20T02:31:56;1.60;;;1.20;;
438;SDS011;206;48.782;9.252;2023-12-20T02:34:22;2.10;;;1.20;;
438;SDS011;206;48.782;9.252;2023-12-20T02:36:47;1.80;;;1.30;;
438;SDS011;206;48.782;9.252;2023-12-20T02:39:13;1.43;;;1.10;;
438;SDS011;206;48.782;9.252;2023-12-20T02:41:39;3.50;;;1.80;;
438;SDS011;206;48.782;9.252;2023-12-20T02:44:05;1.60;;;1.27;;
438;SDS011;206;48.782;9.252;2023-12-20T02:46:30;1.80;;;1.00;;
438;SDS011;206;48.782;9.252;2023-12-20T02:48:56;1.50;;;1.43;;
438;SDS011;206;48.782;9.252;2023-12-20T02:51:21;1.70;;;1.27;;
438;SDS011;206;48.782;9.252;2023-12-20T02:53:47;3.40;;;2.27;;
438;SDS011;206;48.782;9.252;2023-12-20T02:56:12;1.23;;;1.17;;
438;SDS011;206;48.782;9.252;2023-12-20T02:58:39;1.47;;;1.43;;
438;SDS011;206;48.782;9.252;2023-12-20T03:01:05;1.23;;;1.17;;
438;SDS011;206;48.782;9.252;2023-12-20T03:03:31;1.73;;;1.33;;
438;SDS011;206;48.782;9.252;2023-12-20T03:05:56;2.50;;;1.40;;
438;SDS011;206;48.782;9.252;2023-12-20T03:08:22;2.30;;;1.47;;
438;SDS011;206;48.782;9.252;2023-12-20T03:10:48;1.53;;;1.27;;
438;SDS011;206;48.782;9.252;2023-12-20T03:13:13;2.17;;;1.40;;
438;SDS011;206;48.782;9.252;2023-12-20T03:15:39;1.50;;;1.37;;
438;SDS011;206;48.782;9.252;2023-12-20T03:18:05;1.53;;;1.47;;
438;SDS011;206;48.782;9.252;2023-12-20T03:20:31;2.10;;;1.60;;
438;SDS011;206;48.782;9.252;2023-12-20T03:23:02;2.43;;;1.50;;
438;SDS011;206;48.782;9.252;2023-12-20T03:25:28;1.40;;;1.33;;
438;SDS011;206;48.782;9.252;2023-12-20T03:27:54;2.43;;;0.80;;
438;SDS011;206;48.782;9.252;2023-12-20T03:30:19;2.30;;;1.60;;
438;SDS011;206;48.782;9.252;2023-12-20T03:32:45;1.00;;;1.00;;
438;SDS011;206;48.782;9.252;2023-12-20T03:35:11;2.70;;;1.80;;
438;SDS011;206;48.782;9.252;2023-12-20T03:37:37;1.10;;;0.80;;
438;SDS011;206;48.782;9.252;2023-12-20T03:40:03;1.20;;;1.10;;
438;SDS011;206;48.782;9.252;2023-12-20T03:42:28;1.67;;;1.37;;
438;SDS011;206;48.782;9.252;2023-12-20T03:44:54;1.13;;;1.00;;
438;SDS011;206;48.782;9.252;2023-12-20T03:47:20;2.90;;;1.17;;
438;SDS011;206;48.782;9.252;2023-12-20T03:49:45;1.40;;;1.20;;
438;SDS011;206;48.782;9.252;2023-12-20T03:52:11;1.87;;;1.20;;
438;SDS011;206;48.782;9.252;2023-12-20T03:54:37;3.67;;;1.13;;
438;SDS011;206;48.782;9.252;2023-12-20T03:57:02;1.47;;;1.27;;
438;SDS011;206;48.782;9.252;2023-12-20T03:59:28;0.90;;;0.80;;
438;SDS011;206;48.782;9.252;2023-12-20T04:01:54;0.50;;;0.40;;
438;SDS011;206;48.782;9.252;2023-12-20T04:04:20;0.80;;;0.50;;
438;SDS011;206;48.782;9.252;2023-12-20T04:06:45;2.70;;;1.47;;
438;SDS011;206;48.782;9.252;2023-12-20T04:09:11;0.70;;;0.40;;
438;SDS011;206;48.782;9.252;2023-12-20T04:11:37;0.60;;;0.50;;
438;SDS011;206;48.782;9.252;2023-12-20T04:14:02;1.57;;;0.70;;
438;SDS011;206;48.782;9.252;2023-12-20T04:16:30;1.13;;;0.40;;
438;SDS011;206;48.782;9.252;2023-12-20T04:18:55;0.80;;;0.67;;
438;SDS011;206;48.782;9.252;2023-12-20T04:21:21;0.70;;;0.50;;
438;SDS011;206;48.782;9.252;2023-12-20T04:23:46;0.60;;;0.40;;
438;SDS011;206;48.782;9.252;2023-12-20T04:26:12;0.60;;;0.40;;
438;SDS011;206;48.782;9.252;2023-12-20T04:28:37;0.90;;;0.50;;
438;SDS011;206;48.782;9.252;2023-12-20T04:31:03;0.70;;;0.50;;
438;SDS011;206;48.782;9.252;2023-12-20T04:33:28;0.60;;;0.40;;
438;SDS011;206;48.782;9.252;2023-12-20T04:35:54;0.97;;;0.57;;
438;SDS011;206;48.782;9.252;2023-12-20T04:38:20;0.70;;;0.50;;
438;SDS011;206;48.782;9.252;2023-12-20T04:40:45;0.83;;;0.73;;
438;SDS011;206;48.782;9.252;2023-12-20T04:43:11;0.70;;;0.50;;
438;SDS011;206;48.782;9.252;2023-12-20T04:45:37;3.80;;;0.70;;
438;SDS011;206;48.782;9.252;2023-12-20T04:48:02;2.13;;;0.77;;
438;SDS011;206;48.782;9.252;2023-12-20T04:50:29;1.73;;;0.80;;
438;SDS011;206;48.782;9.252;2023-12-20T04:52:54;2.10;;;0.73;;
438;SDS011;206;48.782;9.252;2023-12-20T04:55:20;0.80;;;0.60;;
438;SDS011;206;48.782;9.252;2023-12-20T04:57:45;0.80;;;0.70;;
438;SDS011;206;48.782;9.252;2023-12-20T05:00:11;0.60;;;0.47;;
438;SDS011;206;48.782;9.252;2023-12-20T05:02:37;1.70;;;1.50;;
438;SDS011;206;48.782;9.252;2023-12-20T05:05:03;1.00;;;0.90;;
438;SDS011;206;48.782;9.252;2023-12-20T05:07:29;3.67;;;1.03;;
438;SDS011;206;48.782;9.252;2023-12-20T05:09:54;0.70;;;0.60;;
438;SDS011;206;48.782;9.252;2023-12-20T05:12:20;1.57;;;0.83;;
438;SDS011;206;48.782;9.252;2023-12-20T05:14:46;1.23;;;0.60;;
438;SDS011;206;48.782;9.252;2023-12-20T05:17:11;1.17;;;0.63;;
438;SDS011;206;48.782;9.252;2023-12-20T05:19:37;0.70;;;0.50;;
438;SDS011;206;48.782;9.252;2023-12-20T05:22:02;0.60;;;0.47;;
438;SDS011;206;48.782;9.252;2023-12-20T05:24:28;2.23;;;0.63;;
438;SDS011;206;48.782;9.252;2023-12-20T05:26:54;3.67;;;0.87;;
438;SDS011;206;48.782;9.252;2023-12-20T05:29:20;3.67;;;1.13;;
438;SDS011;206;48.782;9.252;2023-12-20T05:31:45;0.70;;;0.47;;
438;SDS011;206;48.782;9.252;2023-12-20T05:34:11;0.60;;;0.50;;
438;SDS011;206;48.782;9.252;2023-12-20T05:36:37;0.63;;;0.50;;
438;SDS011;206;48.782;9.252;2023-12-20T05:39:03;0.50;;;0.40;;
438;SDS011;206;48.782;9.252;2023-12-20T05:41:30;0.70;;;0.60;;
438;SDS011;206;48.782;9.252;2023-12-20T05:43:55;0.60;;;0.50;;
438;SDS011;206;48.782;9.252;2023-12-20T05:46:23;2.97;;;0.90;;
438;SDS011;206;48.782;9.252;2023-12-20T05:48:48;1.20;;;0.53;;
438;SDS011;206;48.782;9.252;2023-12-20T05:51:14;0.70;;;0.60;;
438;SDS011;206;48.782;9.252;2023-12-20T05:53:40;0.97;;;0.60;;
438;SDS011;206;48.782;9.252;2023-12-20T05:56:05;0.60;;;0.50;;
438;SDS011;206;48.782;9.252;2023-12-20T05:58:32;2.27;;;0.70;;
438;SDS011;206;48.782;9.252;2023-12-20T06:00:58;1.17;;;0.60;;
438;SDS011;206;48.782;9.252;2023-12-20T06:03:24;0.80;;;0.50;;
438;SDS011;206;48.782;9.252;2023-12-20T06:05:49;1.53;;;0.63;;
438;SDS011;206;48.782;9.252;2023-12-20T06:08:15;1.00;;;0.57;;
438;SDS011;206;48.782;9.252;2023-12-20T06:10:40;1.63;;;0.73;;
438;SDS011;206;48.782;9.252;2023-12-20T06:13:06;1.00;;;0.77;;
438;SDS011;206;48.782;9.252;2023-12-20T06:15:32;0.80;;;0.77;;
438;SDS011;206;48.782;9.252;2023-12-20T06:17:58;1.10;;;0.70;;
438;SDS011;206;48.782;9.252;2023-12-20T06:20:23;1.70;;;0.70;;
438;SDS011;206;48.782;9.252;2023-12-20T06:22:50;3.70;;;1.10;;
438;SDS011;206;48.782;9.252;2023-12-20T06:25:16;2.20;;;0.63;;
438;SDS011;206;48.782;9.252;2023-12-20T06:27:41;1.43;;;0.70;;
438;SDS011;206;48.782;9.252;2023-12-20T06:30:07;1.07;;;0.90;;
438;SDS011;206;48.782;9.252;2023-12-20T06:32:36;1.23;;;0.60;;
438;SDS011;206;48.782;9.252;2023-12-20T06:35:03;1.10;;;0.80;;
438;SDS011;206;48.782;9.252;2023-12-20T06:37:30;1.83;;;0.73;;
438;SDS011;206;48.782;9.252;2023-12-20T06:39:55;1.83;;;0.60;;
438;SDS011;206;48.782;9.252;2023-12-20T06:42:21;2.73;;;0.70;;
438;SDS011;206;48.782;9.252;2023-12-20T06:44:47;0.70;;;0.40;;
438;SDS011;206;48.782;9.252;2023-12-20T06:47:13;0.70;;;0.70;;
438;SDS011;206;48.782;9.252;2023-12-20T06:49:39;1.00;;;0.70;;
438;SDS011;206;48.782;9.252;2023-12-20T06:52:06;0.80;;;0.73;;
438;SDS011;206;48.782;9.252;2023-12-20T06:54:32;3.53;;;2.47;;
438;SDS011;206;48.782;9.252;2023-12-20T06:56:59;1.83;;;1.77;;
438;SDS011;206;48.782;9.252;2023-12-20T06:59:25;5.60;;;5.30;;
438;SDS011;206;48.782;9.252;2023-12-20T07:01:51;6.70;;;1.50;;
438;SDS011;206;48.782;9.252;2023-12-20T07:04:16;2.70;;;1.10;;
438;SDS011;206;48.782;9.252;2023-12-20T07:06:45;2.67;;;1.07;;
438;SDS011;206;48.782;9.252;2023-12-20T07:09:13;5.33;;;1.60;;
438;SDS011;206;48.782;9.252;2023-12-20T07:11:39;1.27;;;0.73;;
438;SDS011;206;48.782;9.252;2023-12-20T07:14:04;1.30;;;1.00;;
438;SDS011;206;48.782;9.252;2023-12-20T07:16:30;1.10;;;0.90;;
438;SDS011;206;48.782;9.252;2023-12-20T07:18:56;1.80;;;1.00;;
438;SDS011;206;48.782;9.252;2023-12-20T07:21:22;1.47;;;1.17;;
438;SDS011;206;48.782;9.252;2023-12-20T07:23:48;3.13;;;1.70;;
438;SDS011;206;48.782;9.252;2023-12-20T07:26:13;7.00;;;1.43;;
438;SDS011;206;48.782;9.252;2023-12-20T07:28:39;3.80;;;2.30;;
438;SDS011;206;48.782;9.252;2023-12-20T07:31:05;1.83;;;1.50;;
438;SDS011;206;48.782;9.252;2023-12-20T07:33:31;2.83;;;1.83;;
438;SDS011;206;48.782;9.252;2023-12-20T07:35:56;1.80;;;1.50;;
438;SDS011;206;48.782;9.252;2023-12-20T07:38:22;2.70;;;1.90;;
438;SDS011;206;48.782;9.252;2023-12-20T07:40:48;2.27;;;1.73;;
438;SDS011;206;48.782;9.252;2023-12-20T07:43:13;2.23;;;1.70;;
438;SDS011;206;48.782;9.252;2023-12-20T07:45:39;1.50;;;1.30;;
438;SDS011;206;48.782;9.252;2023-12-20T07:48:06;1.60;;;1.50;;
438;SDS011;206;48.782;9.252;2023-12-20T07:50:32;2.10;;;1.73;;
438;SDS011;206;48.782;9.252;2023-12-20T07:52:57;3.80;;;1.73;;
438;SDS011;206;48.782;9.252;2023-12-20T07:55:25;1.83;;;1.57;;
438;SDS011;206;48.782;9.252;2023-12-20T07:57:51;1.83;;;1.77;;
438;SDS011;206;48.782;9.252;2023-12-20T08:00:17;1.60;;;1.33;;
438;SDS011;206;48.782;9.252;2023-12-20T08:02:43;2.83;;;2.37;;
438;SDS011;206;48.782;9.252;2023-12-20T08:05:08;3.50;;;3.30;;
438;SDS011;206;48.782;9.252;2023-12-20T08:07:34;4.23;;;2.00;;
438;SDS011;206;48.782;9.252;2023-12-20T08:10:00;2.10;;;1.90;;
438;SDS011;206;48.782;9.252;2023-12-20T08:12:25;2.80;;;2.50;;
438;SDS011;206;48.782;9.252;2023-12-20T08:14:52;2.90;;;2.73;;
438;SDS011;206;48.782;9.252;2023-12-20T08:17:19;3.53;;;2.13;;
438;SDS011;206;48.782;9.252;2023-12-20T08:19:44;3.03;;;2.10;;
438;SDS011;206;48.782;9.252;2023-12-20T08:22:10;3.60;;;1.93;;
438;SDS011;206;48.782;9.252;2023-12-20T08:24:36;1.67;;;1.63;;
438;SDS011;206;48.782;9.252;2023-12-20T08:27:02;2.23;;;2.03;;
438;SDS011;206;48.782;9.252;2023-12-20T08:29:28;2.97;;;2.03;;
438;SDS011;206;48.782;9.252;2023-12-20T08:31:54;2.87;;;2.00;;
438;SDS011;206;48.782;9.252;2023-12-20T08:34:21;2.03;;;1.80;;
438;SDS011;206;48.782;9.252;2023-12-20T08:36:46;2.83;;;2.40;;
438;SDS011;206;48.782;9.252;2023-12-20T08:39:12;3.00;;;2.10;;
438;SDS011;206;48.782;9.252;2023-12-20T08:41:38;5.70;;;2.33;;
438;SDS011;206;48.782;9.252;2023-12-20T08:44:03;3.97;;;2.23;;
438;SDS011;206;48.782;9.252;2023-12-20T08:46:29;4.40;;;2.60;;
438;SDS011;206;48.782;9.252;2023-12-20T08:48:55;2.13;;;1.97;;
438;SDS011;206;48.782;9.252;2023-12-20T08:51:21;3.10;;;2.67;;
438;SDS011;206;48.782;9.252;2023-12-20T08:53:48;2.80;;;2.57;;
438;SDS011;206;48.782;9.252;2023-12-20T08:56:14;6.70;;;3.40;;
438;SDS011;206;48.782;9.252;2023-12-20T08:58:40;4.97;;;2.00;;
438;SDS011;206;48.782;9.252;2023-12-20T09:01:05;3.60;;;2.33;;
438;SDS011;206;48.782;9.252;2023-12-20T09:03:32;4.53;;;2.40;;
438;SDS011;206;48.782;9.252;2023-12-20T09:05:58;3.10;;;2.37;;
438;SDS011;206;48.782;9.252;2023-12-20T09:08:23;6.13;;;3.00;;
438;SDS011;206;48.782;9.252;2023-12-20T09:10:49;2.20;;;1.70;;
438;SDS011;206;48.782;9.252;2023-12-20T09:13:14;2.77;;;2.40;;
438;SDS011;206;48.782;9.252;2023-12-20T09:15:40;5.33;;;4.37;;
438;SDS011;206;48.782;9.252;2023-12-20T09:18:06;5.70;;;3.40;;
438;SDS011;206;48.782;9.252;2023-12-20T09:20:31;5.53;;;3.80;;
438;SDS011;206;48.782;9.252;2023-12-20T09:22:57;5.20;;;3.30;;
438;SDS011;206;48.782;9.252;2023-12-20T09:25:23;5.93;;;4.10;;
438;SDS011;206;48.782;9.252;2023-12-20T09:27:49;11.93;;;6.50;;
438;SDS011;206;48.782;9.252;2023-12-20T09:30:14;3.97;;;2.90;;
438;SDS011;206;48.782;9.252;2023-12-20T09:32:40;4.80;;;2.60;;
438;SDS011;206;48.782;9.252;2023-12-20T09:35:06;2.90;;;2.67;;
438;SDS011;206;48.782;9.252;2023-12-20T09:37:33;4.80;;;2.83;;
438;SDS011;206;48.782;9.252;2023-12-20T09:39:59;3.70;;;3.23;;
438;SDS011;206;48.782;9.252;2023-12-20T09:42:28;4.77;;;3.90;;
438;SDS011;206;48.782;9.252;2023-12-20T09:45:14;6.50;;;4.10;;
438;SDS011;206;48.782;9.252;2023-12-20T09:47:42;21.20;;;4.30;;
438;SDS011;206;48.782;9.252;2023-12-20T09:50:08;5.70;;;4.30;;
438;SDS011;206;48.782;9.252;2023-12-20T09:52:34;3.90;;;2.53;;
438;SDS011;206;48.782;9.252;2023-12-20T09:55:02;5.23;;;2.97;;
438;SDS011;206;48.782;9.252;2023-12-20T09:57:30;15.73;;;10.27;;
438;SDS011;206;48.782;9.252;2023-12-20T09:59:57;10.57;;;6.40;;
438;SDS011;206;48.782;9.252;2023-12-20T10:02:23;12.20;;;8.77;;
438;SDS011;206;48.782;9.252;2023-12-20T10:04:52;13.67;;;7.30;;
438;SDS011;206;48.782;9.252;2023-12-20T10:07:19;6.80;;;5.00;;
438;SDS011;206;48.782;9.252;2023-12-20T10:09:45;6.73;;;3.63;;
438;SDS011;206;48.782;9.252;2023-12-20T10:12:12;6.47;;;4.63;;
438;SDS011;206;48.782;9.252;2023-12-20T10:14:41;10.73;;;7.87;;
438;SDS011;206;48.782;9.252;2023-12-20T10:17:06;11.67;;;9.07;;
438;SDS011;206;48.782;9.252;2023-12-20T10:19:32;7.23;;;2.10;;
438;SDS011;206;48.782;9.252;2023-12-20T10:22:03;34.07;;;18.23;;
438;SDS011;206;48.782;9.252;2023-12-20T10:24:29;19.17;;;7.67;;
438;SDS011;206;48.782;9.252;2023-12-20T10:27:02;31.37;;;16.10;;
438;SDS011;206;48.782;9.252;2023-12-20T10:29:32;17.87;;;8.10;;
438;SDS011;206;48.782;9.252;2023-12-20T10:31:58;16.87;;;8.93;;
438;SDS011;206;48.782;9.252;2023-12-20T10:34:24;26.20;;;12.50;;
438;SDS011;206;48.782;9.252;2023-12-20T10:36:49;10.33;;;5.10;;
438;SDS011;206;48.782;9.252;2023-12-20T10:39:16;16.37;;;8.00;;
438;SDS011;206;48.782;9.252;2023-12-20T10:41:45;8.73;;;4.53;;
438;SDS011;206;48.782;9.252;2023-12-20T10:44:12;8.70;;;4.40;;
438;SDS011;206;48.782;9.252;2023-12-20T10:46:38;23.30;;;15.10;;
438;SDS011;206;48.782;9.252;2023-12-20T10:49:05;11.83;;;7.67;;
438;SDS011;206;48.782;9.252;2023-12-20T10:51:33;5.70;;;3.50;;
438;SDS011;206;48.782;9.252;2023-12-20T10:54:00;15.00;;;7.73;;
438;SDS011;206;48.782;9.252;2023-12-20T10:56:25;7.37;;;4.33;;
438;SDS011;206;48.782;9.252;2023-12-20T10:58:57;4.80;;;1.90;;
438;SDS011;206;48.782;9.252;2023-12-20T11:01:26;8.40;;;3.20;;
438;SDS011;206;48.782;9.252;2023-12-20T11:03:54;12.70;;;7.07;;
438;SDS011;206;48.782;9.252;2023-12-20T11:17:13;5.97;;;2.50;;
438;SDS011;206;48.782;9.252;2023-12-20T11:22:39;18.97;;;4.97;;
438;SDS011;206;48.782;9.252;2023-12-20T11:25:17;12.93;;;4.53;;
438;SDS011;206;48.782;9.252;2023-12-20T11:27:43;3.83;;;1.90;;
438;SDS011;206;48.782;9.252;2023-12-20T11:30:10;2.83;;;1.80;;
438;SDS011;206;48.782;9.252;2023-12-20T11:32:36;4.57;;;1.87;;
438;SDS011;206;48.782;9.252;2023-12-20T11:37:37;6.17;;;1.80;;
438;SDS011;206;48.782;9.252;2023-12-20T11:40:07;4.40;;;1.60;;
438;SDS011;206;48.782;9.252;2023-12-20T11:42:39;7.50;;;2.40;;
438;SDS011;206;48.782;9.252;2023-12-20T11:45:15;1.67;;;1.47;;
438;SDS011;206;48.782;9.252;2023-12-20T11:47:48;4.73;;;1.80;;
438;SDS011;206;48.782;9.252;2023-12-20T11:50:15;4.73;;;1.40;;
438;SDS011;206;48.782;9.252;2023-12-20T11:52:41;4.83;;;2.10;;
438;SDS011;206;48.782;9.252;2023-12-20T11:55:06;8.53;;;2.17;;
438;SDS011;206;48.782;9.252;2023-12-20T11:57:32;4.93;;;2.00;;
438;SDS011;206;48.782;9.252;2023-12-20T11:59:59;7.97;;;1.97;;
438;SDS011;206;48.782;9.252;2023-12-20T12:02:24;3.27;;;1.27;;
438;SDS011;206;48.782;9.252;2023-12-20T12:04:50;3.10;;;1.83;;
438;SDS011;206;48.782;9.252;2023-12-20T12:07:16;6.73;;;2.50;;
438;SDS011;206;48.782;9.252;2023-12-20T12:09:42;5.33;;;2.13;;
438;SDS011;206;48.782;9.252;2023-12-20T12:12:08;4.63;;;2.20;;
438;SDS011;206;48.782;9.252;2023-12-20T12:14:36;4.63;;;2.00;;
438;SDS011;206;48.782;9.252;2023-12-20T12:17:02;1.80;;;1.70;;
438;SDS011;206;48.782;9.252;2023-12-20T12:19:28;6.57;;;1.93;;
438;SDS011;206;48.782;9.252;2023-12-20T12:22:07;6.07;;;3.30;;
438;SDS011;206;48.782;9.252;2023-12-20T12:24:44;4.53;;;2.30;;
438;SDS011;206;48.782;9.252;2023-12-20T12:27:11;2.43;;;1.67;;
438;SDS011;206;48.782;9.252;2023-12-20T12:29:38;4.57;;;1.60;;
438;SDS011;206;48.782;9.252;2023-12-20T12:32:07;8.07;;;1.60;;
438;SDS011;206;48.782;9.252;2023-12-20T12:34:33;4.57;;;1.60;;
438;SDS011;206;48.782;9.252;2023-12-20T12:37:00;5.17;;;1.70;;
438;SDS011;206;48.782;9.252;2023-12-20T12:39:25;4.90;;;1.60;;
438;SDS011;206;48.782;9.252;2023-12-20T12:41:51;12.00;;;2.60;;
438;SDS011;206;48.782;9.252;2023-12-20T12:44:17;9.00;;;2.40;;
438;SDS011;206;48.782;9.252;2023-12-20T12:46:46;4.33;;;1.70;;
438;SDS011;206;48.782;9.252;2023-12-20T12:49:15;8.23;;;2.17;;
438;SDS011;206;48.782;9.252;2023-12-20T12:51:40;6.87;;;2.20;;
438;SDS011;206;48.782;9.252;2023-12-20T12:54:06;6.00;;;2.20;;
438;SDS011;206;48.782;9.252;2023-12-20T12:56:31;3.00;;;1.90;;
438;SDS011;206;48.782;9.252;2023-12-20T12:58:57;4.73;;;1.90;;
438;SDS011;206;48.782;9.252;2023-12-20T13:01:23;5.07;;;1.98;;
438;SDS011;206;48.782;9.252;2023-12-20T13:03:49;4.70;;;2.77;;
438;SDS011;206;48.782;9.252;2023-12-20T13:06:14;5.00;;;2.93;;
438;SDS011;206;48.782;9.252;2023-12-20T13:08:40;4.77;;;4.37;;
438;SDS011;206;48.782;9.252;2023-12-20T13:11:06;14.13;;;5.17;;
438;SDS011;206;48.782;9.252;2023-12-20T13:13:32;4.10;;;3.10;;
438;SDS011;206;48.782;9.252;2023-12-20T13:15:57;7.57;;;4.83;;
438;SDS011;206;48.782;9.252;2023-12-20T13:18:23;5.10;;;2.00;;
438;SDS011;206;48.782;9.252;2023-12-20T13:20:49;4.73;;;3.87;;
438;SDS011;206;48.782;9.252;2023-12-20T13:23:15;9.27;;;2.87;;
438;SDS011;206;48.782;9.252;2023-12-20T13:25:43;4.03;;;2.23;;
438;SDS011;206;48.782;9.252;2023-12-20T13:28:10;5.47;;;1.90;;
438;SDS011;206;48.782;9.252;2023-12-20T13:30:37;15.03;;;4.60;;
438;SDS011;206;48.782;9.252;2023-12-20T13:33:03;5.13;;;4.23;;
438;SDS011;206;48.782;9.252;2023-12-20T13:35:30;5.63;;;2.87;;
438;SDS011;206;48.782;9.252;2023-12-20T13:37:56;5.60;;;4.13;;
438;SDS011;206;48.782;9.252;2023-12-20T13:40:22;3.23;;;1.77;;
438;SDS011;206;48.782;9.252;2023-12-20T13:42:48;11.63;;;9.03;;
438;SDS011;206;48.782;9.252;2023-12-20T13:45:14;3.80;;;1.70;;
438;SDS011;206;48.782;9.252;2023-12-20T13:47:39;4.47;;;2.10;;
438;SDS011;206;48.782;9.252;2023-12-20T13:50:05;9.57;;;5.60;;
438;SDS011;206;48.782;9.252;2023-12-20T13:52:31;13.50;;;3.60;;
438;SDS011;206;48.782;9.252;2023-12-20T13:54:56;16.23;;;6.40;;
438;SDS011;206;48.782;9.252;2023-12-20T13:57:22;6.40;;;4.40;;
438;SDS011;206;48.782;9.252;2023-12-20T13:59:48;4.83;;;2.10;;
438;SDS011;206;48.782;9.252;2023-12-20T14:02:13;4.23;;;2.80;;
438;SDS011;206;48.782;9.252;2023-12-20T14:04:39;5.67;;;1.70;;
438;SDS011;206;48.782;9.252;2023-12-20T14:07:05;5.17;;;1.60;;
438;SDS011;206;48.782;9.252;2023-12-20T14:09:32;4.73;;;1.77;;
438;SDS011;206;48.782;9.252;2023-12-20T14:11:58;4.87;;;2.20;;
438;SDS011;206;48.782;9.252;2023-12-20T14:14:23;3.33;;;2.20;;
438;SDS011;206;48.782;9.252;2023-12-20T14:16:49;2.77;;;1.57;;
438;SDS011;206;48.782;9.252;2023-12-20T14:19:15;6.53;;;1.27;;
438;SDS011;206;48.782;9.252;2023-12-20T14:21:42;6.40;;;1.90;;
438;SDS011;206;48.782;9.252;2023-12-20T14:24:10;21.27;;;4.30;;
438;SDS011;206;48.782;9.252;2023-12-20T14:26:41;17.73;;;2.53;;
438;SDS011;206;48.782;9.252;2023-12-20T14:29:07;5.47;;;1.67;;
438;SDS011;206;48.782;9.252;2023-12-20T14:31:33;2.73;;;2.00;;
438;SDS011;206;48.782;9.252;2023-12-20T14:33:59;6.40;;;1.30;;
438;SDS011;206;48.782;9.252;2023-12-20T14:36:26;5.40;;;1.67;;
438;SDS011;206;48.782;9.252;2023-12-20T14:38:52;3.37;;;1.53;;
438;SDS011;206;48.782;9.252;2023-12-20T14:41:18;18.70;;;15.70;;
438;SDS011;206;48.782;9.252;2023-12-20T14:43:44;6.50;;;3.53;;
438;SDS011;206;48.782;9.252;2023-12-20T14:46:09;7.30;;;4.93;;
438;SDS011;206;48.782;9.252;2023-12-20T14:48:35;2.97;;;2.40;;
438;SDS011;206;48.782;9.252;2023-12-20T14:51:01;2.10;;;1.27;;
438;SDS011;206;48.782;9.252;2023-12-20T14:53:26;4.80;;;3.03;;
438;SDS011;206;48.782;9.252;2023-12-20T14:55:52;12.10;;;3.67;;
438;SDS011;206;48.782;9.252;2023-12-20T14:58:18;4.93;;;1.97;;
438;SDS011;206;48.782;9.252;2023-12-20T15:00:43;9.00;;;2.00;;
438;SDS011;206;48.782;9.252;2023-12-20T15:03:10;4.27;;;1.73;;
438;SDS011;206;48.782;9.252;2023-12-20T15:05:35;3.13;;;2.23;;
438;SDS011;206;48.782;9.252;2023-12-20T15:08:01;2.47;;;1.67;;
438;SDS011;206;48.782;9.252;2023-12-20T15:10:27;4.53;;;1.53;;
438;SDS011;206;48.782;9.252;2023-12-20T15:12:53;2.00;;;1.70;;
438;SDS011;206;48.782;9.252;2023-12-20T15:15:20;3.17;;;1.47;;
438;SDS011;206;48.782;9.252;2023-12-20T15:17:46;3.33;;;1.73;;
438;SDS011;206;48.782;9.252;2023-12-20T15:20:12;7.20;;;2.70;;
438;SDS011;206;48.782;9.252;2023-12-20T15:22:38;18.30;;;4.87;;
438;SDS011;206;48.782;9.252;2023-12-20T15:25:06;4.53;;;1.57;;
438;SDS011;206;48.782;9.252;2023-12-20T15:27:33;6.27;;;1.50;;
438;SDS011;206;48.782;9.252;2023-12-20T15:30:02;3.83;;;1.40;;
438;SDS011;206;48.782;9.252;2023-12-20T15:32:28;2.67;;;1.67;;
438;SDS011;206;48.782;9.252;2023-12-20T15:34:54;3.03;;;1.80;;
438;SDS011;206;48.782;9.252;2023-12-20T15:37:19;2.93;;;1.60;;
438;SDS011;206;48.782;9.252;2023-12-20T15:39:45;9.57;;;1.70;;
438;SDS011;206;48.782;9.252;2023-12-20T15:42:10;2.07;;;1.40;;
438;SDS011;206;48.782;9.252;2023-12-20T15:44:36;2.50;;;1.50;;
438;SDS011;206;48.782;9.252;2023-12-20T15:47:01;3.55;;;1.20;;
438;SDS011;206;48.782;9.252;2023-12-20T15:49:27;3.77;;;1.87;;
438;SDS011;206;48.782;9.252;2023-12-20T15:51:53;2.77;;;1.67;;
438;SDS011;206;48.782;9.252;2023-12-20T15:54:19;8.87;;;5.03;;